Time;durP1;ratioP1;P1;durP2;ratioP2;P2;SDS_P1;SDS_P2;PMS_P1;PMS_P2;Temp;Humidity;BMP_temperature;BMP_pressure;BME280_temperature;BME280_humidity;BME280_pressure;Samples;Min_cycle;Max_cycle;Signal;HPM_P1;HPM_P2
2021/05/15 00:00:07;;;;;;;9.27;4.50;;;16.20;72.80;;;;;;5154991;27;20031;-70
2021/05/15 00:02:32;;;;;;;7.30;4.90;;;16.10;73.00;;;;;;5154874;27;20353;-71
2021/05/15 00:04:58;;;;;;;8.40;4.28;;;16.10;73.10;;;;;;5154906;27;20155;-71
2021/05/15 00:07:24;;;;;;;7.13;4.70;;;16.10;73.20;;;;;;5136894;27;20062;-71
2021/05/15 00:09:49;;;;;;;9.77;5.28;;;16.00;73.40;;;;;;5155124;27;20030;-71
2021/05/15 00:12:15;;;;;;;9.45;5.38;;;15.90;73.50;;;;;;5154910;27;20023;-71
2021/05/15 00:14:41;;;;;;;8.88;5.90;;;15.90;73.80;;;;;;5154512;27;20422;-71
2021/05/15 00:17:06;;;;;;;7.97;5.53;;;15.80;73.90;;;;;;5155079;27;20087;-71
2021/05/15 00:19:32;;;;;;;6.53;4.88;;;15.80;74.20;;;;;;5154828;27;20066;-71
2021/05/15 00:21:58;;;;;;;8.95;5.25;;;15.80;74.50;;;;;;5158600;27;20026;-71
2021/05/15 00:24:24;;;;;;;8.90;6.05;;;15.70;74.60;;;;;;5158398;27;20034;-71
2021/05/15 00:26:49;;;;;;;7.97;5.57;;;15.70;74.80;;;;;;5158551;27;20073;-71
2021/05/15 00:29:15;;;;;;;8.45;5.70;;;15.60;75.00;;;;;;5158216;27;20033;-70
2021/05/15 00:31:41;;;;;;;9.55;5.70;;;15.60;75.10;;;;;;5158942;27;20034;-70
2021/05/15 00:34:06;;;;;;;8.65;5.68;;;15.50;75.40;;;;;;5157185;27;20069;-70
2021/05/15 00:36:32;;;;;;;7.45;5.63;;;15.50;75.60;;;;;;5158432;27;20018;-70
2021/05/15 00:38:58;;;;;;;9.00;5.18;;;15.50;75.90;;;;;;5139844;27;20436;-70
2021/05/15 00:41:23;;;;;;;7.50;5.85;;;15.40;76.00;;;;;;5158296;27;20070;-70
2021/05/15 00:44:11;;;;;;;10.30;6.82;;;15.40;76.20;;;;;;5158592;27;20043;-71
2021/05/15 00:46:38;;;;;;;11.05;6.40;;;15.40;76.40;;;;;;5158557;27;20023;-71
2021/05/15 00:49:05;;;;;;;7.75;5.90;;;15.30;76.50;;;;;;5158059;27;20420;-71
2021/05/15 00:51:32;;;;;;;9.93;5.75;;;15.30;76.80;;;;;;5158073;27;20042;-70
2021/05/15 00:53:59;;;;;;;7.32;5.90;;;15.30;76.90;;;;;;5158244;27;20031;-70
2021/05/15 00:56:28;;;;;;;14.48;6.28;;;15.20;77.10;;;;;;5157933;27;20152;-70
2021/05/15 00:58:54;;;;;;;9.38;6.88;;;15.20;77.40;;;;;;5158173;27;20019;-71
2021/05/15 01:01:20;;;;;;;9.63;6.55;;;15.20;77.50;;;;;;5157858;27;20033;-70
2021/05/15 01:03:46;;;;;;;9.80;6.90;;;15.20;77.70;;;;;;5158286;27;20023;-70
2021/05/15 01:06:11;;;;;;;10.82;7.05;;;15.10;77.80;;;;;;5158313;27;20023;-70
2021/05/15 01:08:40;;;;;;;12.88;7.07;;;15.10;77.90;;;;;;5158258;27;20038;-72
2021/05/15 01:11:05;;;;;;;11.75;7.53;;;15.10;78.20;;;;;;5157628;27;20062;-70
2021/05/15 01:13:33;;;;;;;12.60;7.82;;;15.00;78.30;;;;;;5157604;27;20047;-70
2021/05/15 01:16:02;;;;;;;11.23;8.10;;;15.00;78.50;;;;;;5157511;27;20038;-71
2021/05/15 01:18:27;;;;;;;10.13;6.55;;;14.90;78.80;;;;;;5157625;27;20027;-70
2021/05/15 01:21:01;;;;;;;13.55;6.25;;;14.90;78.80;;;;;;5158246;27;20026;-70
2021/05/15 01:23:27;;;;;;;8.30;6.60;;;14.90;79.20;;;;;;5157454;27;20061;-70
2021/05/15 01:25:53;;;;;;;11.20;6.78;;;14.80;79.20;;;;;;5157200;27;20035;-71
2021/05/15 01:28:19;;;;;;;8.60;5.90;;;14.80;79.50;;;;;;5157833;27;20114;-71
2021/05/15 01:30:45;;;;;;;8.45;6.35;;;14.70;79.80;;;;;;5138508;27;20023;-71
2021/05/15 01:33:11;;;;;;;9.13;6.20;;;14.70;80.00;;;;;;5157172;27;20030;-70
2021/05/15 01:35:37;;;;;;;11.70;6.18;;;14.70;80.10;;;;;;5157487;27;20031;-70
2021/05/15 01:38:02;;;;;;;13.35;7.25;;;14.70;80.30;;;;;;5157067;27;20026;-70
2021/05/15 01:40:28;;;;;;;8.43;6.50;;;14.60;80.40;;;;;;5157275;27;20019;-70
2021/05/15 01:42:54;;;;;;;9.30;6.45;;;14.60;80.50;;;;;;5155799;27;20368;-71
2021/05/15 01:45:20;;;;;;;12.45;7.47;;;14.50;80.70;;;;;;5157138;27;20031;-70
2021/05/15 01:47:45;;;;;;;11.25;7.10;;;14.50;80.80;;;;;;5155676;27;20457;-70
2021/05/15 01:50:14;;;;;;;8.45;6.30;;;14.50;81.00;;;;;;5156622;27;20029;-70
2021/05/15 01:52:40;;;;;;;9.52;6.35;;;14.40;81.10;;;;;;5157532;27;20026;-70
2021/05/15 01:55:21;;;;;;;11.25;6.68;;;14.40;81.30;;;;;;5157621;27;20437;-71
2021/05/15 01:57:48;;;;;;;9.98;6.70;;;14.40;81.60;;;;;;5157301;27;20019;-70
2021/05/15 02:00:14;;;;;;;12.05;7.07;;;14.30;81.50;;;;;;5156625;27;20027;-71
2021/05/15 02:02:39;;;;;;;12.75;7.18;;;14.30;81.70;;;;;;5138507;27;20565;-71
2021/05/15 02:05:05;;;;;;;14.93;7.40;;;14.30;81.90;;;;;;5156494;27;20122;-71
2021/05/15 02:07:31;;;;;;;9.95;7.32;;;14.30;82.20;;;;;;5156640;27;20091;-71
2021/05/15 02:09:57;;;;;;;12.30;9.00;;;14.20;82.20;;;;;;5156353;27;20460;-71
2021/05/15 02:12:22;;;;;;;11.63;7.78;;;14.20;82.30;;;;;;5156860;27;20026;-72
2021/05/15 02:14:48;;;;;;;12.52;8.00;;;14.20;82.40;;;;;;5137695;27;20075;-71
2021/05/15 02:17:14;;;;;;;14.23;7.72;;;14.20;82.50;;;;;;5156004;27;20461;-71
2021/05/15 02:19:40;;;;;;;13.00;7.85;;;14.10;82.70;;;;;;5137297;27;20038;-71
2021/05/15 02:22:06;;;;;;;11.95;8.05;;;14.10;82.80;;;;;;5155857;27;20098;-71
2021/05/15 02:24:31;;;;;;;10.18;7.68;;;14.10;82.90;;;;;;5155765;27;20125;-73
2021/05/15 02:26:57;;;;;;;14.55;7.85;;;14.10;83.10;;;;;;5156582;27;20026;-71
2021/05/15 02:29:23;;;;;;;11.73;8.13;;;14.10;83.20;;;;;;5155924;27;20018;-72
2021/05/15 02:31:48;;;;;;;12.43;8.57;;;14.10;83.30;;;;;;5156382;27;20026;-71
2021/05/15 02:34:14;;;;;;;12.93;8.90;;;14.10;83.40;;;;;;5156489;27;20027;-71
2021/05/15 02:36:40;;;;;;;12.73;10.85;;;14.00;83.40;;;;;;5155952;27;20019;-72
2021/05/15 02:39:05;;;;;;;16.23;9.93;;;14.00;83.50;;;;;;5156127;27;20018;-71
2021/05/15 02:41:31;;;;;;;15.13;9.48;;;14.10;83.60;;;;;;5155330;27;20050;-71
2021/05/15 02:43:57;;;;;;;11.00;8.75;;;14.00;83.70;;;;;;5155102;27;20030;-71
2021/05/15 02:46:22;;;;;;;12.68;8.52;;;14.00;83.70;;;;;;5155397;27;20090;-71
2021/05/15 02:48:48;;;;;;;13.32;8.95;;;14.10;83.80;;;;;;5155669;27;20023;-71
2021/05/15 02:51:14;;;;;;;13.15;8.05;;;14.10;83.90;;;;;;5155514;27;20029;-71
2021/05/15 02:53:39;;;;;;;18.33;8.80;;;14.10;84.00;;;;;;5155612;27;20046;-73
2021/05/15 02:56:05;;;;;;;14.18;8.73;;;14.10;84.10;;;;;;5155870;27;20019;-71
2021/05/15 02:58:30;;;;;;;11.15;8.23;;;14.10;84.10;;;;;;5155235;27;20425;-71
2021/05/15 03:00:57;;;;;;;14.18;8.43;;;14.10;84.20;;;;;;5155234;27;20029;-71
2021/05/15 03:03:23;;;;;;;12.82;8.07;;;14.10;84.20;;;;;;5155452;27;20022;-71
2021/05/15 03:05:49;;;;;;;16.27;8.80;;;14.10;84.30;;;;;;5155563;27;20031;-71
2021/05/15 03:08:14;;;;;;;11.88;8.30;;;14.20;84.40;;;;;;5155350;27;20103;-71
2021/05/15 03:10:40;;;;;;;12.27;8.48;;;14.20;84.40;;;;;;5155602;27;20176;-71
2021/05/15 03:13:06;;;;;;;15.82;8.35;;;14.20;84.40;;;;;;5155720;27;20035;-71
2021/05/15 03:15:31;;;;;;;16.15;9.40;;;14.20;84.40;;;;;;5155272;27;20023;-72
2021/05/15 03:17:57;;;;;;;13.57;8.98;;;14.20;84.40;;;;;;5155707;27;20476;-71
2021/05/15 03:20:25;;;;;;;16.38;9.15;;;14.30;84.40;;;;;;5155261;27;20019;-72
2021/05/15 03:22:51;;;;;;;12.63;8.80;;;14.30;84.40;;;;;;5155139;27;20070;-72
2021/05/15 03:25:18;;;;;;;14.07;9.07;;;14.30;84.30;;;;;;5155083;27;20038;-71
2021/05/15 03:27:44;;;;;;;14.20;10.07;;;14.40;84.30;;;;;;5155104;27;20357;-72
2021/05/15 03:30:11;;;;;;;13.30;9.43;;;14.40;84.30;;;;;;5155095;27;20034;-74
2021/05/15 03:32:40;;;;;;;17.15;10.35;;;14.40;84.20;;;;;;5154719;27;20022;-71
2021/05/15 03:35:06;;;;;;;13.35;9.35;;;14.40;84.20;;;;;;5154942;27;20026;-71
2021/05/15 03:37:31;;;;;;;11.88;9.13;;;14.50;84.30;;;;;;5155330;27;20023;-71
2021/05/15 03:39:57;;;;;;;15.27;9.10;;;14.50;84.10;;;;;;5154852;27;20112;-71
2021/05/15 03:42:23;;;;;;;11.35;8.45;;;14.50;84.00;;;;;;5136274;27;20464;-71
2021/05/15 03:44:49;;;;;;;12.93;8.05;;;14.60;84.00;;;;;;5154934;27;20030;-70
2021/05/15 03:47:14;;;;;;;11.23;9.05;;;14.60;83.80;;;;;;5154752;27;20023;-71
2021/05/15 03:49:40;;;;;;;12.27;8.40;;;14.70;83.70;;;;;;5155178;27;20474;-72
2021/05/15 03:52:06;;;;;;;12.50;7.88;;;14.70;84.20;;;;;;5154336;27;20440;-71
2021/05/15 03:54:31;;;;;;;10.80;8.30;;;14.70;83.50;;;;;;5153310;27;20023;-72
2021/05/15 03:56:57;;;;;;;15.73;8.15;;;14.80;83.50;;;;;;5158426;27;20038;-71
2021/05/15 03:59:23;;;;;;;16.33;8.40;;;14.80;83.30;;;;;;5159285;27;20026;-71
2021/05/15 04:01:49;;;;;;;15.35;8.30;;;14.80;83.10;;;;;;5140294;27;20034;-71
2021/05/15 04:04:15;;;;;;;12.63;8.60;;;14.90;83.20;;;;;;5159122;27;20475;-71
2021/05/15 04:06:41;;;;;;;10.15;7.78;;;14.90;83.20;;;;;;5158923;27;20026;-71
2021/05/15 04:09:06;;;;;;;11.52;8.20;;;14.90;83.00;;;;;;5139921;27;20023;-70
2021/05/15 04:11:38;;;;;;;12.50;7.88;;;15.00;83.00;;;;;;5158872;27;20034;-70
2021/05/15 04:19:28;;;;;;;11.48;7.90;;;15.10;82.80;;;;;;5158694;27;20372;-72
2021/05/15 04:21:55;;;;;;;14.23;8.05;;;15.10;82.50;;;;;;5158623;27;20023;-72
2021/05/15 04:24:24;;;;;;;13.85;8.55;;;15.20;82.40;;;;;;5158449;27;20079;-72
2021/05/15 04:26:54;;;;;;;12.75;8.50;;;15.20;82.40;;;;;;5159051;27;20102;-72
2021/05/15 04:29:21;;;;;;;10.02;7.78;;;15.30;82.30;;;;;;5157797;27;20023;-72
2021/05/15 04:31:48;;;;;;;13.70;8.07;;;15.40;82.30;;;;;;5158400;27;20083;-70
2021/05/15 04:34:15;;;;;;;10.85;8.05;;;15.40;82.00;;;;;;5158368;27;20055;-71
2021/05/15 04:36:41;;;;;;;10.00;7.25;;;15.50;81.70;;;;;;5158582;27;20444;-70
2021/05/15 04:39:07;;;;;;;13.32;7.90;;;15.50;81.50;;;;;;5158287;27;20078;-72
2021/05/15 04:41:34;;;;;;;17.63;8.13;;;15.60;81.40;;;;;;5157920;27;20075;-70
2021/05/15 04:44:00;;;;;;;12.20;7.75;;;15.70;81.30;;;;;;5157789;27;20118;-71
2021/05/15 04:46:26;;;;;;;11.10;7.88;;;15.70;81.00;;;;;;5156948;27;20034;-71
2021/05/15 04:48:52;;;;;;;12.85;8.00;;;15.80;80.50;;;;;;5157988;27;20031;-72
2021/05/15 04:51:17;;;;;;;12.85;7.78;;;15.80;80.10;;;;;;5158039;27;20061;-71
2021/05/15 04:53:43;;;;;;;14.88;8.00;;;15.90;80.00;;;;;;5157738;27;20365;-72
2021/05/15 04:56:10;;;;;;;14.82;6.93;;;15.90;79.70;;;;;;5157987;27;20416;-71
2021/05/15 04:58:36;;;;;;;11.13;7.35;;;15.90;79.40;;;;;;5158162;27;20027;-71
2021/05/15 05:01:03;;;;;;;11.60;7.97;;;16.00;79.40;;;;;;5158030;27;20023;-72
2021/05/15 05:03:29;;;;;;;12.27;7.70;;;16.00;79.10;;;;;;5157943;27;20031;-71
2021/05/15 05:05:55;;;;;;;13.27;7.50;;;16.10;79.30;;;;;;5157366;27;20039;-71
2021/05/15 05:08:21;;;;;;;14.95;8.10;;;16.10;79.30;;;;;;5157789;27;20108;-71
2021/05/15 05:10:46;;;;;;;9.98;7.47;;;16.20;79.20;;;;;;5157592;27;20110;-72
2021/05/15 05:13:12;;;;;;;10.48;7.03;;;16.30;78.80;;;;;;5157828;27;20106;-71
2021/05/15 05:15:38;;;;;;;11.05;7.15;;;16.40;78.50;;;;;;5157182;27;20035;-73
2021/05/15 05:18:04;;;;;;;8.25;6.40;;;16.40;78.10;;;;;;5157874;27;20023;-71
2021/05/15 05:20:29;;;;;;;13.65;7.35;;;16.50;77.50;;;;;;5157486;27;20046;-71
2021/05/15 05:22:55;;;;;;;10.43;6.35;;;16.60;77.30;;;;;;5157641;27;20071;-71
2021/05/15 05:25:21;;;;;;;10.60;6.97;;;16.60;77.10;;;;;;5156989;27;20031;-71
2021/05/15 05:27:47;;;;;;;9.75;6.57;;;16.70;76.80;;;;;;5157264;27;20083;-72
2021/05/15 05:30:17;;;;;;;10.38;6.40;;;16.80;76.80;;;;;;5157261;27;20030;-72
2021/05/15 05:32:44;;;;;;;7.95;6.45;;;16.90;76.30;;;;;;5157284;27;20034;-71
2021/05/15 05:35:11;;;;;;;11.23;6.28;;;17.00;76.00;;;;;;5156998;27;20026;-71
2021/05/15 05:37:36;;;;;;;12.23;6.70;;;17.10;75.80;;;;;;5157264;27;20499;-72
2021/05/15 05:40:04;;;;;;;9.35;6.05;;;17.10;75.60;;;;;;5157065;27;20031;-72
2021/05/15 05:42:30;;;;;;;6.68;4.53;;;17.30;75.40;;;;;;5138401;27;20058;-71
2021/05/15 05:44:56;;;;;;;8.32;4.70;;;17.30;74.60;;;;;;5138074;27;20030;-72
2021/05/15 05:47:22;;;;;;;3.72;3.03;;;17.40;74.20;;;;;;5156598;27;20026;-72
2021/05/15 05:49:48;;;;;;;6.03;3.70;;;17.50;73.50;;;;;;5156646;27;20079;-72
2021/05/15 05:52:14;;;;;;;5.38;3.50;;;17.60;73.20;;;;;;5138261;27;20115;-71
2021/05/15 05:54:40;;;;;;;2.80;2.60;;;17.70;72.80;;;;;;5138138;27;20355;-72
2021/05/15 05:57:06;;;;;;;6.68;4.43;;;17.80;71.80;;;;;;5157226;27;20079;-71
2021/05/15 05:59:32;;;;;;;5.38;2.97;;;17.90;71.20;;;;;;5156695;27;20022;-72
2021/05/15 06:01:57;;;;;;;3.42;2.90;;;17.90;70.50;;;;;;5156302;27;20422;-72
2021/05/15 06:04:23;;;;;;;3.70;2.83;;;18.00;70.00;;;;;;5156255;27;20026;-71
2021/05/15 06:06:49;;;;;;;2.72;2.50;;;18.10;69.80;;;;;;5156437;27;20055;-72
2021/05/15 06:09:18;;;;;;;6.85;2.70;;;18.20;69.30;;;;;;5138716;27;20023;-72
2021/05/15 06:11:44;;;;;;;3.55;2.70;;;18.20;68.80;;;;;;5156407;27;20083;-71
2021/05/15 06:14:09;;;;;;;3.65;2.33;;;18.30;68.60;;;;;;5156495;27;20030;-71
2021/05/15 06:16:35;;;;;;;3.92;2.67;;;18.40;68.50;;;;;;5156337;27;20023;-72
2021/05/15 06:19:01;;;;;;;2.40;2.20;;;18.50;67.90;;;;;;5155152;27;20123;-72
2021/05/15 06:21:26;;;;;;;2.95;2.10;;;18.50;67.30;;;;;;5156045;27;20027;-72
2021/05/15 06:23:52;;;;;;;3.03;2.08;;;18.60;66.70;;;;;;5155862;27;20102;-72
2021/05/15 06:26:18;;;;;;;3.38;2.08;;;18.70;66.20;;;;;;5155922;27;20027;-71
2021/05/15 06:28:43;;;;;;;5.45;2.30;;;18.70;65.90;;;;;;5156037;27;20030;-71
2021/05/15 06:31:09;;;;;;;4.47;2.42;;;18.70;65.80;;;;;;5155543;27;20516;-72
2021/05/15 06:33:35;;;;;;;10.43;2.55;;;18.80;65.80;;;;;;5156032;27;20019;-71
2021/05/15 06:36:02;;;;;;;3.53;2.08;;;18.90;65.60;;;;;;5156528;27;20059;-72
2021/05/15 06:38:27;;;;;;;3.20;2.10;;;18.90;65.40;;;;;;5156218;27;20042;-72
2021/05/15 06:40:53;;;;;;;4.78;2.63;;;19.00;65.40;;;;;;5155928;27;20019;-74
2021/05/15 06:43:19;;;;;;;3.45;2.38;;;19.10;65.40;;;;;;5137156;27;20076;-72
2021/05/15 06:45:45;;;;;;;4.57;2.08;;;19.20;65.20;;;;;;5155237;27;20041;-73
2021/05/15 06:48:10;;;;;;;3.05;1.73;;;19.30;64.60;;;;;;5136790;27;20080;-71
2021/05/15 06:50:36;;;;;;;2.72;2.38;;;19.30;64.00;;;;;;5155612;27;20051;-72
2021/05/15 06:53:02;;;;;;;3.83;2.10;;;19.50;64.00;;;;;;5137176;27;20106;-72
2021/05/15 06:55:28;;;;;;;2.42;1.60;;;19.60;63.70;;;;;;5155591;27;20387;-71
2021/05/15 06:57:54;;;;;;;1.77;1.67;;;19.60;62.80;;;;;;5155366;27;20027;-70
2021/05/15 07:00:21;;;;;;;2.65;1.90;;;19.70;62.50;;;;;;5155310;27;20031;-71
2021/05/15 07:02:49;;;;;;;2.90;1.80;;;19.70;62.50;;;;;;5155341;27;20478;-73
2021/05/15 07:05:15;;;;;;;3.55;1.98;;;19.80;62.30;;;;;;5155351;27;20038;-71
2021/05/15 07:07:41;;;;;;;2.58;1.80;;;19.80;62.20;;;;;;5155179;27;20018;-72
2021/05/15 07:10:07;;;;;;;7.90;1.90;;;19.80;61.60;;;;;;5155808;27;20023;-72
2021/05/15 07:12:33;;;;;;;2.03;1.80;;;19.90;61.50;;;;;;5155197;27;20078;-71
2021/05/15 07:14:59;;;;;;;1.67;1.42;;;19.90;61.50;;;;;;5155372;27;20031;-71
2021/05/15 07:17:25;;;;;;;2.63;1.88;;;20.00;61.00;;;;;;5154797;27;20034;-71
2021/05/15 07:19:55;;;;;;;2.53;1.70;;;20.10;61.00;;;;;;5155088;27;20376;-73
2021/05/15 07:22:24;;;;;;;1.70;1.60;;;20.10;61.00;;;;;;5155169;27;20019;-72
2021/05/15 07:24:58;;;;;;;6.07;2.15;;;20.20;61.10;;;;;;5155099;27;20027;-73
2021/05/15 07:27:24;;;;;;;4.55;2.25;;;20.20;60.90;;;;;;5136632;27;20023;-71
2021/05/15 07:29:53;;;;;;;4.82;1.90;;;20.30;61.00;;;;;;5157688;27;20050;-73
2021/05/15 07:32:21;;;;;;;2.67;1.70;;;20.40;60.60;;;;;;5159234;27;20109;-72
2021/05/15 07:34:47;;;;;;;4.55;1.70;;;20.40;60.20;;;;;;5159413;27;20361;-71
2021/05/15 07:37:14;;;;;;;2.67;1.67;;;20.50;59.90;;;;;;5159556;27;20053;-72
2021/05/15 07:39:40;;;;;;;5.13;1.58;;;20.50;59.70;;;;;;5159310;27;20086;-71
2021/05/15 07:42:07;;;;;;;2.22;1.58;;;20.60;59.80;;;;;;5159232;27;20058;-72
2021/05/15 07:44:33;;;;;;;4.15;1.65;;;20.60;58.70;;;;;;5159285;27;20054;-72
2021/05/15 07:46:59;;;;;;;2.45;1.65;;;20.70;58.50;;;;;;5159222;27;20368;-72
2021/05/15 07:49:25;;;;;;;2.47;1.77;;;20.70;58.60;;;;;;5159493;27;20023;-73
2021/05/15 07:51:52;;;;;;;1.42;1.38;;;20.70;58.40;;;;;;5159366;27;20432;-73
2021/05/15 07:54:22;;;;;;;4.40;1.70;;;20.80;58.40;;;;;;5159057;27;20065;-71
2021/05/15 07:56:49;;;;;;;3.15;1.50;;;20.90;58.50;;;;;;5158617;27;20491;-72
2021/05/15 07:59:16;;;;;;;2.80;1.70;;;21.00;58.20;;;;;;5158943;27;20353;-71
2021/05/15 08:01:42;;;;;;;16.55;3.05;;;21.10;58.20;;;;;;5158786;27;20353;-72
2021/05/15 08:04:08;;;;;;;2.30;1.60;;;21.20;58.20;;;;;;5159124;27;20031;-72
2021/05/15 08:06:34;;;;;;;2.72;1.90;;;21.40;58.00;;;;;;5158471;27;20031;-72
2021/05/15 08:09:00;;;;;;;1.58;1.48;;;21.50;57.50;;;;;;5158774;27;20037;-72
2021/05/15 08:11:25;;;;;;;2.42;1.42;;;21.70;57.10;;;;;;5159489;27;20019;-72
2021/05/15 08:13:51;;;;;;;1.50;1.40;;;21.80;56.60;;;;;;5159147;27;20027;-73
2021/05/15 08:16:17;;;;;;;1.85;1.67;;;22.00;56.00;;;;;;5158672;27;20023;-73
2021/05/15 08:18:43;;;;;;;1.42;1.33;;;22.10;55.20;;;;;;5158498;27;20034;-75
2021/05/15 08:21:10;;;;;;;2.70;1.40;;;22.30;54.80;;;;;;5140466;27;20338;-72
2021/05/15 08:23:36;;;;;;;4.47;2.05;;;22.50;54.70;;;;;;5158061;27;20460;-71
2021/05/15 08:26:04;;;;;;;1.95;1.50;;;22.70;54.30;;;;;;5158156;27;20444;-74
2021/05/15 08:28:30;;;;;;;2.25;1.23;;;22.90;52.80;;;;;;5158382;27;20018;-71
2021/05/15 08:30:56;;;;;;;7.05;1.50;;;23.10;52.50;;;;;;5158133;27;20048;-72
2021/05/15 08:33:22;;;;;;;1.73;1.45;;;23.40;51.70;;;;;;5158206;27;20046;-72
2021/05/15 08:35:48;;;;;;;1.55;1.27;;;23.60;51.30;;;;;;5157597;27;20026;-72
2021/05/15 08:38:14;;;;;;;1.20;0.93;;;23.90;50.90;;;;;;5157485;27;20019;-73
2021/05/15 08:40:40;;;;;;;1.10;1.00;;;24.20;50.20;;;;;;5157259;27;20015;-72
2021/05/15 08:43:07;;;;;;;3.63;1.10;;;24.60;49.50;;;;;;5158290;27;20482;-72
2021/05/15 08:45:33;;;;;;;1.95;1.25;;;24.90;48.40;;;;;;5157744;27;20042;-74
2021/05/15 08:48:01;;;;;;;1.15;0.90;;;25.10;47.80;;;;;;5158112;27;20445;-73
2021/05/15 08:50:30;;;;;;;3.85;1.42;;;25.30;47.50;;;;;;5158172;27;20022;-73
2021/05/15 08:52:58;;;;;;;2.85;1.10;;;25.60;47.20;;;;;;5158459;27;20038;-73
2021/05/15 08:55:27;;;;;;;1.88;1.20;;;25.90;46.60;;;;;;5157361;27;20037;-72
2021/05/15 08:57:54;;;;;;;2.97;0.77;;;26.20;46.20;;;;;;5158285;27;20027;-73
2021/05/15 09:00:24;;;;;;;1.55;0.90;;;26.60;45.50;;;;;;5158385;27;20033;-72
2021/05/15 09:02:56;;;;;;;1.33;0.90;;;26.30;44.90;;;;;;5157958;27;20468;-72
2021/05/15 09:05:24;;;;;;;0.90;0.90;;;26.00;44.40;;;;;;5157704;27;20081;-72
2021/05/15 09:07:52;;;;;;;1.40;1.08;;;26.10;44.50;;;;;;5158049;27;20360;-73
2021/05/15 09:10:20;;;;;;;3.40;1.45;;;26.40;44.10;;;;;;5139013;27;20033;-72
2021/05/15 09:12:46;;;;;;;2.33;0.80;;;26.80;44.10;;;;;;5139391;27;20360;-71
2021/05/15 09:15:14;;;;;;;1.52;0.90;;;27.30;43.70;;;;;;5138904;27;20082;-72
2021/05/15 09:17:48;;;;;;;2.53;0.90;;;27.60;43.10;;;;;;5157431;27;20109;-72
2021/05/15 09:20:27;;;;;;;0.90;0.60;;;27.90;42.50;;;;;;5157550;27;20022;-72
2021/05/15 09:22:53;;;;;;;4.07;1.00;;;28.50;42.20;;;;;;5157545;27;20098;-73
2021/05/15 09:25:20;;;;;;;0.93;0.60;;;28.60;41.80;;;;;;5138540;27;20045;-72
2021/05/15 09:27:46;;;;;;;0.75;0.73;;;29.00;41.70;;;;;;5157909;27;20416;-72
2021/05/15 09:30:13;;;;;;;1.00;0.90;;;29.60;41.20;;;;;;5157180;27;20034;-73
2021/05/15 09:32:39;;;;;;;1.00;1.00;;;30.10;40.60;;;;;;5155721;27;20483;-72
2021/05/15 09:35:06;;;;;;;0.80;0.80;;;30.70;40.10;;;;;;5157545;27;20062;-72
2021/05/15 09:37:32;;;;;;;1.92;0.80;;;31.30;39.10;;;;;;5157077;27;20114;-73
2021/05/15 09:40:13;;;;;;;3.00;1.08;;;31.80;38.60;;;;;;5157022;27;20058;-71
2021/05/15 09:42:57;;;;;;;1.45;1.17;;;32.20;38.20;;;;;;5157457;27;20058;-71
2021/05/15 09:45:31;;;;;;;1.67;1.10;;;32.90;37.50;;;;;;5138980;27;20034;-72
2021/05/15 09:48:01;;;;;;;1.90;0.90;;;33.50;37.40;;;;;;5156846;27;20027;-72
2021/05/15 09:50:32;;;;;;;1.13;1.13;;;34.10;37.00;;;;;;5157354;27;20079;-72
2021/05/15 09:53:05;;;;;;;1.15;0.80;;;34.30;36.10;;;;;;5156627;27;20084;-72
2021/05/15 09:55:31;;;;;;;1.27;0.93;;;34.50;35.90;;;;;;5156700;27;20449;-72
2021/05/15 09:57:57;;;;;;;2.80;1.08;;;34.80;36.00;;;;;;5156595;27;20079;-72
2021/05/15 10:00:23;;;;;;;1.90;1.58;;;35.20;35.60;;;;;;5156316;27;20027;-73
2021/05/15 10:02:54;;;;;;;2.58;2.08;;;35.10;34.70;;;;;;5138628;27;20025;-71
2021/05/15 10:05:20;;;;;;;0.88;0.82;;;35.10;34.80;;;;;;5156469;27;20023;-72
2021/05/15 10:07:46;;;;;;;2.67;1.50;;;35.30;34.70;;;;;;5156443;27;20019;-72
2021/05/15 10:10:12;;;;;;;1.13;0.75;;;35.70;34.40;;;;;;5156386;27;20098;-73
2021/05/15 10:12:38;;;;;;;3.80;1.33;;;35.90;33.80;;;;;;5137857;27;20083;-72
2021/05/15 10:15:05;;;;;;;1.55;0.80;;;36.00;33.50;;;;;;5156397;27;20027;-72
2021/05/15 10:17:33;;;;;;;0.63;0.63;;;36.00;33.20;;;;;;5156474;27;20428;-72
2021/05/15 10:20:11;;;;;;;0.70;0.70;;;36.00;33.20;;;;;;5138191;27;20113;-71
2021/05/15 10:22:38;;;;;;;1.75;0.90;;;36.30;32.90;;;;;;5155875;27;20026;-72
2021/05/15 10:25:13;;;;;;;1.48;0.77;;;36.60;32.90;;;;;;5156112;27;20372;-72
2021/05/15 10:27:39;;;;;;;0.65;0.65;;;36.60;32.20;;;;;;5155889;27;20152;-72
2021/05/15 10:30:18;;;;;;;1.60;0.95;;;36.70;32.30;;;;;;5155970;27;20440;-72
2021/05/15 10:32:56;;;;;;;7.05;1.85;;;36.80;32.30;;;;;;5156008;27;20159;-71
2021/05/15 10:35:33;;;;;;;0.43;0.43;;;36.90;32.10;;;;;;5155961;27;20030;-72
2021/05/15 10:38:12;;;;;;;1.48;0.60;;;37.10;31.70;;;;;;5155632;27;20019;-72
2021/05/15 10:40:45;;;;;;;1.15;0.50;;;37.30;30.80;;;;;;5156296;27;20352;-72
2021/05/15 10:43:11;;;;;;;2.37;1.23;;;37.20;30.70;;;;;;5155729;27;20422;-73
2021/05/15 10:45:39;;;;;;;0.55;0.50;;;37.30;30.80;;;;;;5155730;27;20767;-72
2021/05/15 10:48:22;;;;;;;0.90;0.60;;;37.30;30.90;;;;;;5155862;27;20398;-72
2021/05/15 10:50:57;;;;;;;0.50;0.50;;;37.40;30.60;;;;;;5154960;27;20053;-72
2021/05/15 10:53:29;;;;;;;1.75;0.63;;;37.50;30.50;;;;;;5155457;27;20015;-72
2021/05/15 10:56:17;;;;;;;0.68;0.63;;;37.60;30.40;;;;;;5155350;27;20030;-76
2021/05/15 10:58:48;;;;;;;3.78;1.10;;;36.90;30.00;;;;;;5156232;27;20072;-71
2021/05/15 11:01:20;;;;;;;1.38;0.57;;;36.90;30.60;;;;;;5155842;27;20022;-73
2021/05/15 11:03:47;;;;;;;0.75;0.75;;;37.50;30.40;;;;;;5155149;27;20425;-72
2021/05/15 11:06:23;;;;;;;1.52;0.68;;;37.50;30.40;;;;;;5155345;27;20130;-73
2021/05/15 11:09:04;;;;;;;5.00;0.60;;;37.90;30.20;;;;;;5154852;27;20030;-73
2021/05/15 11:11:38;;;;;;;1.30;0.63;;;38.00;30.00;;;;;;5155090;27;20034;-73
2021/05/15 11:14:23;;;;;;;0.50;0.50;;;38.30;30.00;;;;;;5154247;27;20027;-73
2021/05/15 11:17:05;;;;;;;1.05;0.60;;;38.40;29.70;;;;;;5155884;27;20027;-73
2021/05/15 11:19:31;;;;;;;2.33;0.90;;;38.10;29.40;;;;;;5154274;27;20092;-77
2021/05/15 11:21:57;;;;;;;1.08;0.98;;;37.70;29.60;;;;;;5154191;27;20102;-72
2021/05/15 11:24:36;;;;;;;0.80;0.47;;;37.30;30.00;;;;;;5155476;27;20117;-72
2021/05/15 11:27:23;;;;;;;0.82;0.82;;;37.60;29.90;;;;;;5154545;27;20023;-72
2021/05/15 11:30:03;;;;;;;5.82;0.73;;;38.20;29.90;;;;;;5155957;27;20019;-72
2021/05/15 11:32:29;;;;;;;0.75;0.57;;;38.30;30.00;;;;;;5155831;27;20022;-72
2021/05/15 11:34:56;;;;;;;1.20;0.70;;;38.20;29.30;;;;;;5155760;27;20437;-72
2021/05/15 11:37:21;;;;;;;1.80;0.68;;;38.10;29.20;;;;;;5137430;27;20037;-72
2021/05/15 11:39:53;;;;;;;2.60;0.63;;;38.30;29.20;;;;;;5155240;27;20098;-72
2021/05/15 11:42:19;;;;;;;0.77;0.60;;;38.80;29.30;;;;;;5155008;27;20076;-72
2021/05/15 11:44:52;;;;;;;1.23;0.80;;;39.30;29.10;;;;;;5154644;27;20100;-72
2021/05/15 11:47:18;;;;;;;1.13;0.88;;;39.40;28.70;;;;;;5154464;27;20037;-75
2021/05/15 11:49:54;;;;;;;0.50;0.50;;;39.40;28.50;;;;;;5155490;27;20030;-72
2021/05/15 11:52:31;;;;;;;3.72;0.60;;;38.60;28.40;;;;;;5154680;27;20023;-72
2021/05/15 11:54:57;;;;;;;0.77;0.73;;;37.30;28.90;;;;;;5154068;27;20057;-72
2021/05/15 11:57:28;;;;;;;3.13;1.30;;;36.80;29.20;;;;;;5155048;27;20027;-72
2021/05/15 12:00:05;;;;;;;3.72;3.25;;;36.80;29.60;;;;;;5154515;27;20474;-73
2021/05/15 12:02:31;;;;;;;0.70;0.70;;;37.30;29.90;;;;;;5155478;27;20023;-72
2021/05/15 12:04:57;;;;;;;0.52;0.52;;;37.70;29.30;;;;;;5154549;27;20079;-71
2021/05/15 12:07:22;;;;;;;0.90;0.75;;;37.80;28.90;;;;;;5154099;27;20031;-72
2021/05/15 12:09:48;;;;;;;0.65;0.65;;;37.80;28.90;;;;;;5154884;27;20027;-75
2021/05/15 12:12:14;;;;;;;0.40;0.40;;;37.90;29.00;;;;;;5154341;27;20420;-73
2021/05/15 12:14:42;;;;;;;1.17;0.80;;;38.00;29.00;;;;;;5155482;27;20088;-71
2021/05/15 12:17:10;;;;;;;0.55;0.50;;;38.40;29.00;;;;;;5156549;27;20023;-73
2021/05/15 12:19:36;;;;;;;1.63;0.80;;;38.90;29.00;;;;;;5158716;27;20026;-71
2021/05/15 12:22:09;;;;;;;0.52;0.52;;;39.20;28.60;;;;;;5158337;27;20540;-71
2021/05/15 12:24:36;;;;;;;;;;;38.20;28.30;;;;;;5158320;27;20472;-71
2021/05/15 12:27:21;;;;;;;3.42;0.85;;;37.00;28.70;;;;;;5158362;27;19903;-73
2021/05/15 12:30:06;;;;;;;1.90;1.80;;;36.70;29.20;;;;;;5158244;27;20029;-72
2021/05/15 12:32:33;;;;;;;0.70;0.68;;;36.30;29.40;;;;;;5157925;27;20083;-72
2021/05/15 12:35:01;;;;;;;1.75;0.57;;;36.70;29.60;;;;;;5158338;27;20026;-72
2021/05/15 12:37:38;;;;;;;2.92;2.30;;;37.10;29.40;;;;;;5157759;27;20532;-73
2021/05/15 12:40:05;;;;;;;1.17;1.00;;;36.80;29.50;;;;;;5158842;27;20031;-72
2021/05/15 12:42:32;;;;;;;1.23;0.88;;;37.10;29.60;;;;;;5157983;27;20353;-73
2021/05/15 12:45:15;;;;;;;2.05;1.00;;;37.60;29.20;;;;;;5157933;27;20035;-71
2021/05/15 12:47:41;;;;;;;;;;;37.90;29.00;;;;;;5159362;27;20031;-71
2021/05/15 12:50:27;;;;;;;2.15;0.60;;;38.00;29.00;;;;;;5158023;27;19903;-71